Time;durP1;ratioP1;P1;durP2;ratioP2;P2;SDS_P1;SDS_P2;PMS_P1;PMS_P2;Temp;Humidity;BMP_temperature;BMP_pressure;BME280_temperature;BME280_humidity;BME280_pressure;Samples;Min_cycle;Max_cycle;Signal;HPM_P1;HPM_P2
2024/01/04 00:00:33;;;;;;;15.75;5.28;;;;;;;;;;4986319;28;25082;-68
2024/01/04 00:02:59;;;;;;;13.90;4.80;;;;;;;;;;4987115;28;25142;-69
2024/01/04 00:05:25;;;;;;;9.35;4.55;;;;;;;;;;4988335;28;25077;-69
2024/01/04 00:07:51;;;;;;;7.57;4.40;;;;;;;;;;4994329;28;25063;-69
2024/01/04 00:10:17;;;;;;;12.23;4.97;;;;;;;;;;4983541;28;25064;-70
2024/01/04 00:12:51;;;;;;;12.50;4.63;;;;;;;;;;4986996;28;25068;-69
2024/01/04 00:15:17;;;;;;;13.05;5.07;;;;;;;;;;4993922;28;25080;-69
2024/01/04 00:17:43;;;;;;;10.68;4.53;;;;;;;;;;4990494;28;25119;-70
2024/01/04 00:20:09;;;;;;;13.10;5.32;;;;;;;;;;4989062;28;25135;-70
2024/01/04 00:22:35;;;;;;;15.98;4.78;;;;;;;;;;4995342;28;25134;-68
2024/01/04 00:25:02;;;;;;;17.05;5.10;;;;;;;;;;4985777;28;25108;-69
2024/01/04 00:27:27;;;;;;;23.33;5.45;;;;;;;;;;4992451;28;25064;-68
2024/01/04 00:29:53;;;;;;;14.82;5.68;;;;;;;;;;4989532;28;25059;-68
2024/01/04 00:32:19;;;;;;;11.32;5.88;;;;;;;;;;4994752;28;25064;-69
2024/01/04 00:34:45;;;;;;;14.55;5.65;;;;;;;;;;4994099;28;25123;-70
2024/01/04 00:37:11;;;;;;;14.45;5.63;;;;;;;;;;4992060;28;25057;-70
2024/01/04 00:39:37;;;;;;;13.65;5.25;;;;;;;;;;4993310;28;25155;-69
2024/01/04 00:42:03;;;;;;;19.95;6.18;;;;;;;;;;4990123;28;25175;-70
2024/01/04 00:44:29;;;;;;;16.92;5.80;;;;;;;;;;4994573;28;25141;-69
2024/01/04 00:46:55;;;;;;;13.50;6.22;;;;;;;;;;4984087;28;25069;-70
2024/01/04 00:49:21;;;;;;;14.77;6.75;;;;;;;;;;4988805;28;25076;-69
2024/01/04 00:51:47;;;;;;;19.02;6.72;;;;;;;;;;4991186;28;25068;-70
2024/01/04 00:54:13;;;;;;;12.32;6.75;;;;;;;;;;4990504;28;25125;-70
2024/01/04 00:56:39;;;;;;;14.50;7.80;;;;;;;;;;4988607;28;25142;-69
2024/01/04 00:59:05;;;;;;;15.02;6.20;;;;;;;;;;4992330;28;25063;-69
2024/01/04 01:01:34;;;;;;;12.10;5.32;;;;;;;;;;4988634;28;25163;-70
2024/01/04 01:04:03;;;;;;;18.25;5.15;;;;;;;;;;4987747;28;25148;-69
2024/01/04 01:06:29;;;;;;;19.27;6.53;;;;;;;;;;4990630;28;25097;-69
2024/01/04 01:08:55;;;;;;;20.58;7.20;;;;;;;;;;4993299;28;25115;-70
2024/01/04 01:11:21;;;;;;;23.52;7.03;;;;;;;;;;4983745;28;25063;-70
2024/01/04 01:13:47;;;;;;;16.75;6.43;;;;;;;;;;4989243;28;25075;-70
2024/01/04 01:16:13;;;;;;;11.50;6.32;;;;;;;;;;4988924;28;25121;-69
2024/01/04 01:18:39;;;;;;;17.52;6.15;;;;;;;;;;4994900;28;25162;-69
2024/01/04 01:21:05;;;;;;;13.35;6.25;;;;;;;;;;4991592;28;25066;-69
2024/01/04 01:23:31;;;;;;;17.60;6.47;;;;;;;;;;5025589;28;25047;-69
2024/01/04 01:25:57;;;;;;;10.93;6.57;;;;;;;;;;4990633;28;25152;-70
2024/01/04 01:28:23;;;;;;;14.90;6.97;;;;;;;;;;4999095;28;25166;-69
2024/01/04 01:30:49;;;;;;;20.02;8.07;;;;;;;;;;4995145;28;25156;-69
2024/01/04 01:33:15;;;;;;;10.82;7.03;;;;;;;;;;4990926;28;25140;-69
2024/01/04 01:35:41;;;;;;;14.38;8.65;;;;;;;;;;4990520;28;25082;-70
2024/01/04 01:38:07;;;;;;;27.67;9.10;;;;;;;;;;4988646;28;25065;-68
2024/01/04 01:40:33;;;;;;;24.35;8.32;;;;;;;;;;4992736;28;25160;-69
2024/01/04 01:42:59;;;;;;;17.25;8.48;;;;;;;;;;4986509;28;25089;-69
2024/01/04 01:45:25;;;;;;;19.00;8.98;;;;;;;;;;4984741;28;25077;-69
2024/01/04 01:47:51;;;;;;;21.48;9.23;;;;;;;;;;4990464;28;25098;-69
2024/01/04 01:50:21;;;;;;;19.17;8.77;;;;;;;;;;4990193;28;25178;-69
2024/01/04 01:52:48;;;;;;;20.52;9.43;;;;;;;;;;4982418;28;25084;-70
2024/01/04 01:55:15;;;;;;;23.52;9.30;;;;;;;;;;4988998;28;25072;-69
2024/01/04 01:57:42;;;;;;;22.50;9.35;;;;;;;;;;4992921;28;25081;-69
2024/01/04 02:00:09;;;;;;;19.23;9.20;;;;;;;;;;4981437;28;24732;-69
2024/01/04 02:02:35;;;;;;;23.17;9.45;;;;;;;;;;4984874;28;25066;-71
2024/01/04 02:05:02;;;;;;;19.15;8.18;;;;;;;;;;4988462;28;25050;-70
2024/01/04 02:07:28;;;;;;;24.50;8.93;;;;;;;;;;4988039;28;25087;-69
2024/01/04 02:09:54;;;;;;;19.40;8.23;;;;;;;;;;4984271;28;25080;-70
2024/01/04 02:12:20;;;;;;;17.42;8.05;;;;;;;;;;4988703;28;25159;-69
2024/01/04 02:14:48;;;;;;;22.42;7.50;;;;;;;;;;4984660;28;25064;-70
2024/01/04 02:17:14;;;;;;;16.92;7.28;;;;;;;;;;4984290;28;25060;-69
2024/01/04 02:19:40;;;;;;;13.68;6.70;;;;;;;;;;5020395;28;25096;-69
2024/01/04 02:22:06;;;;;;;18.52;6.97;;;;;;;;;;4991659;28;25136;-69
2024/01/04 02:24:32;;;;;;;18.00;6.50;;;;;;;;;;4996096;28;25087;-69
2024/01/04 02:26:58;;;;;;;13.18;6.80;;;;;;;;;;4991053;28;25088;-69
2024/01/04 02:29:24;;;;;;;15.68;6.90;;;;;;;;;;4985656;28;25056;-69
2024/01/04 02:31:50;;;;;;;11.18;6.78;;;;;;;;;;4992562;28;25062;-68
2024/01/04 02:34:16;;;;;;;11.93;7.00;;;;;;;;;;4988109;28;25068;-68
2024/01/04 02:36:42;;;;;;;19.02;6.72;;;;;;;;;;4996845;28;25123;-69
2024/01/04 02:39:09;;;;;;;13.00;7.00;;;;;;;;;;5029887;28;25063;-69
2024/01/04 02:41:35;;;;;;;19.63;7.05;;;;;;;;;;4995581;28;25060;-69
2024/01/04 02:44:01;;;;;;;14.48;6.40;;;;;;;;;;4992870;28;25054;-69
2024/01/04 02:46:27;;;;;;;18.80;6.93;;;;;;;;;;4996233;28;25128;-69
2024/01/04 02:48:53;;;;;;;12.13;7.38;;;;;;;;;;4989701;28;25104;-69
2024/01/04 02:51:19;;;;;;;16.35;6.93;;;;;;;;;;4989965;28;25135;-68
2024/01/04 02:53:45;;;;;;;18.42;7.55;;;;;;;;;;4986792;28;25100;-69
2024/01/04 02:56:10;;;;;;;15.35;7.70;;;;;;;;;;4990725;28;25051;-69
2024/01/04 02:58:37;;;;;;;22.52;8.27;;;;;;;;;;4988122;28;25071;-69
2024/01/04 03:01:03;;;;;;;23.17;7.40;;;;;;;;;;5017022;28;25053;-70
2024/01/04 03:03:29;;;;;;;22.40;8.60;;;;;;;;;;4989258;28;25043;-69
2024/01/04 03:05:55;;;;;;;19.95;8.05;;;;;;;;;;4979118;28;25104;-69
2024/01/04 03:08:21;;;;;;;21.73;8.95;;;;;;;;;;4989071;28;25114;-69
2024/01/04 03:10:47;;;;;;;20.55;9.15;;;;;;;;;;4983475;28;25087;-67
2024/01/04 03:13:13;;;;;;;18.67;8.60;;;;;;;;;;4994896;28;25061;-68
2024/01/04 03:15:39;;;;;;;21.85;9.35;;;;;;;;;;4986581;28;25064;-68
2024/01/04 03:18:05;;;;;;;20.65;8.63;;;;;;;;;;4993388;28;25169;-69
2024/01/04 03:20:31;;;;;;;20.60;8.18;;;;;;;;;;4982781;28;25067;-68
2024/01/04 03:22:57;;;;;;;25.73;9.20;;;;;;;;;;4984958;28;25073;-69
2024/01/04 03:25:23;;;;;;;21.98;8.38;;;;;;;;;;4995427;28;25057;-68
2024/01/04 03:27:49;;;;;;;16.73;8.00;;;;;;;;;;4989830;28;25070;-69
2024/01/04 03:30:15;;;;;;;12.85;7.32;;;;;;;;;;4989602;28;25089;-69
2024/01/04 03:32:41;;;;;;;16.33;7.32;;;;;;;;;;4987727;28;25069;-69
2024/01/04 03:35:08;;;;;;;15.77;7.75;;;;;;;;;;4992540;28;25071;-69
2024/01/04 03:37:34;;;;;;;17.55;7.07;;;;;;;;;;4988181;28;25059;-69
2024/01/04 03:40:00;;;;;;;12.05;7.22;;;;;;;;;;4994208;28;25074;-71
2024/01/04 03:42:26;;;;;;;14.77;7.25;;;;;;;;;;4987074;28;25077;-69
2024/01/04 03:44:52;;;;;;;15.40;6.82;;;;;;;;;;4982601;28;25058;-69
2024/01/04 03:47:18;;;;;;;18.40;7.30;;;;;;;;;;4987967;28;25095;-70
2024/01/04 03:49:44;;;;;;;15.25;7.82;;;;;;;;;;4991840;28;25086;-69
2024/01/04 03:52:10;;;;;;;13.02;6.63;;;;;;;;;;4986962;28;25068;-69
2024/01/04 03:54:36;;;;;;;15.27;7.30;;;;;;;;;;4978730;28;25066;-68
2024/01/04 03:57:02;;;;;;;14.07;6.55;;;;;;;;;;4984001;28;25139;-68
2024/01/04 03:59:28;;;;;;;15.40;6.00;;;;;;;;;;4985762;28;25135;-69
2024/01/04 04:01:54;;;;;;;13.88;6.25;;;;;;;;;;4986148;28;25070;-68
2024/01/04 04:04:19;;;;;;;10.55;5.43;;;;;;;;;;4989555;28;25143;-70
2024/01/04 04:06:45;;;;;;;15.25;6.78;;;;;;;;;;4985788;28;25077;-67
2024/01/04 04:09:11;;;;;;;13.20;7.00;;;;;;;;;;4999073;28;25069;-70
2024/01/04 04:11:37;;;;;;;15.05;7.53;;;;;;;;;;4993246;28;25056;-70
2024/01/04 04:14:03;;;;;;;16.13;7.85;;;;;;;;;;5004230;28;25079;-67
2024/01/04 04:16:29;;;;;;;14.73;7.22;;;;;;;;;;5002155;28;25088;-67
2024/01/04 04:18:55;;;;;;;13.95;6.18;;;;;;;;;;5017811;28;25081;-69
2024/01/04 04:21:22;;;;;;;12.30;5.53;;;;;;;;;;5022106;28;25089;-70
2024/01/04 04:23:49;;;;;;;7.05;4.60;;;;;;;;;;5015229;28;25065;-70
2024/01/04 04:26:22;;;;;;;8.95;5.20;;;;;;;;;;5008588;28;25077;-70
2024/01/04 04:28:48;;;;;;;;;;;;;;;;;;5008420;28;25070;-69
2024/01/04 04:31:14;;;;;;;5.43;4.93;;;;;;;;;;5010261;28;25062;-70
2024/01/04 04:33:40;;;;;;;7.95;4.53;;;;;;;;;;4989446;28;25071;-69
2024/01/04 04:36:07;;;;;;;5.75;4.63;;;;;;;;;;4986216;28;25127;-70
2024/01/04 04:38:34;;;;;;;6.72;4.50;;;;;;;;;;4989021;28;25071;-70
2024/01/04 04:41:00;;;;;;;9.68;4.80;;;;;;;;;;4989170;28;25091;-68
2024/01/04 04:43:26;;;;;;;7.53;4.22;;;;;;;;;;4990765;28;25054;-69
2024/01/04 04:45:52;;;;;;;4.90;4.47;;;;;;;;;;4994890;28;24775;-69
2024/01/04 04:48:18;;;;;;;5.15;3.92;;;;;;;;;;4995941;28;25065;-68
2024/01/04 04:50:44;;;;;;;3.85;3.55;;;;;;;;;;4988215;28;25056;-67
2024/01/04 04:53:10;;;;;;;3.95;3.63;;;;;;;;;;4982134;28;25057;-68
2024/01/04 04:55:35;;;;;;;3.97;3.65;;;;;;;;;;4988616;28;25073;-69
2024/01/04 04:58:01;;;;;;;4.40;3.65;;;;;;;;;;4977865;28;25112;-69
2024/01/04 05:00:27;;;;;;;4.80;4.30;;;;;;;;;;4987815;28;25057;-69
2024/01/04 05:02:53;;;;;;;4.75;4.15;;;;;;;;;;4985991;28;25072;-68
2024/01/04 05:05:19;;;;;;;5.82;4.53;;;;;;;;;;4994208;28;25076;-68
2024/01/04 05:07:45;;;;;;;5.63;4.55;;;;;;;;;;4990765;28;25101;-68
2024/01/04 05:10:11;;;;;;;7.85;4.82;;;;;;;;;;4988786;28;25091;-70
2024/01/04 05:12:37;;;;;;;7.53;5.22;;;;;;;;;;4988393;28;25062;-68
2024/01/04 05:15:04;;;;;;;10.18;5.40;;;;;;;;;;4988123;28;25088;-70
2024/01/04 05:17:29;;;;;;;10.43;6.05;;;;;;;;;;4988235;28;25145;-69
2024/01/04 05:19:55;;;;;;;8.80;6.15;;;;;;;;;;4988010;28;25076;-70
2024/01/04 05:22:21;;;;;;;15.10;6.88;;;;;;;;;;4994210;28;25055;-70
2024/01/04 05:24:47;;;;;;;16.17;6.20;;;;;;;;;;4982553;28;25152;-69
2024/01/04 05:27:13;;;;;;;14.80;6.72;;;;;;;;;;4986465;28;25183;-69
2024/01/04 05:29:39;;;;;;;10.93;6.70;;;;;;;;;;4984996;28;25118;-69
2024/01/04 05:32:05;;;;;;;12.70;7.30;;;;;;;;;;4990396;28;25080;-67
2024/01/04 05:34:32;;;;;;;8.80;6.57;;;;;;;;;;4996916;28;25071;-69
2024/01/04 05:36:58;;;;;;;16.30;6.45;;;;;;;;;;4981235;28;25069;-69
2024/01/04 05:39:25;;;;;;;19.27;7.05;;;;;;;;;;4986596;28;25076;-70
2024/01/04 05:41:51;;;;;;;15.70;6.93;;;;;;;;;;4992702;28;25080;-70
2024/01/04 05:44:17;;;;;;;15.07;7.28;;;;;;;;;;4987410;28;25135;-70
2024/01/04 05:46:43;;;;;;;22.25;7.10;;;;;;;;;;4979223;28;25098;-69
2024/01/04 05:49:09;;;;;;;17.80;6.57;;;;;;;;;;4984473;28;25065;-69
2024/01/04 05:51:35;;;;;;;16.80;5.75;;;;;;;;;;4982334;28;25299;-69
2024/01/04 05:54:02;;;;;;;18.55;7.00;;;;;;;;;;4985971;28;25089;-69
2024/01/04 05:56:28;;;;;;;18.48;5.18;;;;;;;;;;4988695;28;25105;-70
2024/01/04 05:58:54;;;;;;;12.57;4.97;;;;;;;;;;4988328;28;25069;-71
2024/01/04 06:01:20;;;;;;;14.35;4.50;;;;;;;;;;4987112;28;25054;-71
2024/01/04 06:03:46;;;;;;;15.38;5.18;;;;;;;;;;4993571;28;25054;-70
2024/01/04 06:06:14;;;;;;;18.73;5.10;;;;;;;;;;4984301;28;25083;-70
2024/01/04 06:08:40;;;;;;;11.00;3.53;;;;;;;;;;4989733;28;25065;-71
2024/01/04 06:11:06;;;;;;;9.18;3.70;;;;;;;;;;4988551;28;25066;-71
2024/01/04 06:13:32;;;;;;;6.25;4.25;;;;;;;;;;4981817;28;25156;-72
2024/01/04 06:15:58;;;;;;;9.02;3.92;;;;;;;;;;4978729;28;25216;-72
2024/01/04 06:18:24;;;;;;;8.55;4.18;;;;;;;;;;4984629;28;25079;-72
2024/01/04 06:20:50;;;;;;;5.10;3.30;;;;;;;;;;4982107;28;25070;-71
2024/01/04 06:23:17;;;;;;;6.32;3.17;;;;;;;;;;4987146;28;25103;-71
2024/01/04 06:25:43;;;;;;;4.55;2.85;;;;;;;;;;4983844;28;25053;-71
2024/01/04 06:28:09;;;;;;;6.35;3.08;;;;;;;;;;4989798;28;25057;-72
2024/01/04 06:30:35;;;;;;;5.22;2.85;;;;;;;;;;4987533;28;25092;-70
2024/01/04 06:33:01;;;;;;;5.22;3.15;;;;;;;;;;4988861;28;25123;-71
2024/01/04 06:35:27;;;;;;;4.00;3.35;;;;;;;;;;4984718;28;25058;-71
2024/01/04 06:37:53;;;;;;;3.58;2.78;;;;;;;;;;4977500;28;25061;-71
2024/01/04 06:40:19;;;;;;;4.55;3.38;;;;;;;;;;4985621;28;25083;-72
2024/01/04 06:42:53;;;;;;;4.75;3.25;;;;;;;;;;4977132;28;25143;-73
2024/01/04 06:45:19;;;;;;;5.95;2.95;;;;;;;;;;4982933;28;25065;-72
2024/01/04 06:47:45;;;;;;;4.53;3.00;;;;;;;;;;4987543;28;25070;-71
2024/01/04 06:50:11;;;;;;;3.53;3.20;;;;;;;;;;4990429;28;25069;-72
2024/01/04 06:52:36;;;;;;;7.47;3.90;;;;;;;;;;4978966;28;25138;-72
2024/01/04 06:55:02;;;;;;;4.18;3.28;;;;;;;;;;4986979;28;25057;-73
2024/01/04 06:57:28;;;;;;;7.55;4.40;;;;;;;;;;4987242;28;25084;-72
2024/01/04 06:59:54;;;;;;;4.22;3.92;;;;;;;;;;4980302;28;25129;-71
2024/01/04 07:02:20;;;;;;;6.38;4.57;;;;;;;;;;4990156;28;25135;-71
2024/01/04 07:04:46;;;;;;;5.35;4.40;;;;;;;;;;4989261;28;25066;-71
2024/01/04 07:07:12;;;;;;;4.15;3.70;;;;;;;;;;5012515;28;25073;-73
2024/01/04 07:09:38;;;;;;;7.70;4.45;;;;;;;;;;4984827;28;25087;-72
2024/01/04 07:12:06;;;;;;;6.22;4.20;;;;;;;;;;4986291;28;25086;-71
2024/01/04 07:14:31;;;;;;;5.38;4.30;;;;;;;;;;4977533;28;25070;-72
2024/01/04 07:16:58;;;;;;;4.20;3.80;;;;;;;;;;4989007;28;25082;-71
2024/01/04 07:19:23;;;;;;;6.55;4.40;;;;;;;;;;4982048;28;25097;-72
2024/01/04 07:21:49;;;;;;;5.65;4.40;;;;;;;;;;4988171;28;25108;-71
2024/01/04 07:24:16;;;;;;;5.95;4.05;;;;;;;;;;4981721;28;25112;-74
2024/01/04 07:26:42;;;;;;;4.18;3.83;;;;;;;;;;4984010;28;25185;-71
2024/01/04 07:29:08;;;;;;;5.97;3.63;;;;;;;;;;4985953;28;25057;-71
2024/01/04 07:31:34;;;;;;;3.55;3.25;;;;;;;;;;4990044;28;25130;-72
2024/01/04 07:34:02;;;;;;;10.48;4.40;;;;;;;;;;5001678;28;25060;-72
2024/01/04 07:36:28;;;;;;;9.48;4.25;;;;;;;;;;4988629;28;25133;-72
2024/01/04 07:38:54;;;;;;;7.20;5.22;;;;;;;;;;4994139;28;25078;-72
2024/01/04 07:41:20;;;;;;;12.27;5.68;;;;;;;;;;5005241;28;25074;-71
2024/01/04 07:43:47;;;;;;;9.45;5.35;;;;;;;;;;4990227;28;25078;-70
2024/01/04 07:46:13;;;;;;;12.18;6.43;;;;;;;;;;4979157;28;25068;-72
2024/01/04 07:48:39;;;;;;;7.63;5.03;;;;;;;;;;4981954;28;25081;-73
2024/01/04 07:51:05;;;;;;;8.93;5.40;;;;;;;;;;4988272;28;25179;-71
2024/01/04 07:53:31;;;;;;;15.65;5.30;;;;;;;;;;5018301;28;25059;-71
2024/01/04 07:55:57;;;;;;;6.28;4.88;;;;;;;;;;4983585;28;25060;-71
2024/01/04 07:58:23;;;;;;;7.00;5.20;;;;;;;;;;4979949;28;25066;-72
2024/01/04 08:00:49;;;;;;;15.35;5.72;;;;;;;;;;4986424;28;25082;-72
2024/01/04 08:03:15;;;;;;;13.88;5.45;;;;;;;;;;4984413;28;25078;-71
2024/01/04 08:05:41;;;;;;;10.00;3.90;;;;;;;;;;4989974;28;25058;-72
2024/01/04 08:08:07;;;;;;;18.25;3.95;;;;;;;;;;4982140;28;25060;-72
2024/01/04 08:10:33;;;;;;;7.13;2.45;;;;;;;;;;4986845;28;25061;-72
2024/01/04 08:12:59;;;;;;;7.70;1.88;;;;;;;;;;5025651;28;25083;-72
2024/01/04 08:15:25;;;;;;;9.23;2.25;;;;;;;;;;4987086;28;25154;-71
2024/01/04 08:17:51;;;;;;;9.30;1.92;;;;;;;;;;4994422;28;25119;-71
2024/01/04 08:20:18;;;;;;;10.95;2.30;;;;;;;;;;4991034;28;25174;-72
2024/01/04 08:22:44;;;;;;;6.13;1.63;;;;;;;;;;4995648;28;25072;-71
2024/01/04 08:25:10;;;;;;;6.40;2.47;;;;;;;;;;4987364;28;25087;-73
2024/01/04 08:27:36;;;;;;;7.32;1.92;;;;;;;;;;5023128;28;25077;-70
2024/01/04 08:30:02;;;;;;;7.10;2.30;;;;;;;;;;5002014;28;25045;-73
2024/01/04 08:32:28;;;;;;;10.52;3.00;;;;;;;;;;4987343;28;25091;-72
2024/01/04 08:34:54;;;;;;;6.32;3.08;;;;;;;;;;4999176;28;25104;-70
2024/01/04 08:37:20;;;;;;;14.68;2.92;;;;;;;;;;4980075;28;25064;-71
2024/01/04 08:39:46;;;;;;;7.97;2.63;;;;;;;;;;5021928;28;25097;-72
2024/01/04 08:42:12;;;;;;;13.02;3.78;;;;;;;;;;4989431;28;25086;-72
2024/01/04 08:44:39;;;;;;;17.92;3.90;;;;;;;;;;5013198;28;25071;-73
2024/01/04 08:47:04;;;;;;;16.25;3.45;;;;;;;;;;5001166;28;25083;-73
2024/01/04 08:49:30;;;;;;;11.02;3.70;;;;;;;;;;4997164;28;25096;-73
2024/01/04 08:51:56;;;;;;;16.63;3.60;;;;;;;;;;5018926;28;25073;-72
2024/01/04 08:54:23;;;;;;;10.63;3.67;;;;;;;;;;4999471;28;25065;-73
2024/01/04 08:56:49;;;;;;;6.15;3.10;;;;;;;;;;5003582;28;25066;-71
2024/01/04 08:59:15;;;;;;;11.77;3.60;;;;;;;;;;5012494;28;25067;-72
2024/01/04 09:01:42;;;;;;;14.40;2.80;;;;;;;;;;5009173;28;25117;-72
2024/01/04 09:04:08;;;;;;;8.38;2.75;;;;;;;;;;5001276;28;25084;-72
2024/01/04 09:06:36;;;;;;;7.28;2.55;;;;;;;;;;5006038;28;25051;-72
2024/01/04 09:09:05;;;;;;;6.00;2.42;;;;;;;;;;5003548;28;25077;-72
2024/01/04 09:11:33;;;;;;;12.25;2.38;;;;;;;;;;5004826;28;25045;-73
2024/01/04 09:14:00;;;;;;;8.23;2.58;;;;;;;;;;5002691;28;25124;-73
2024/01/04 09:16:27;;;;;;;5.13;2.78;;;;;;;;;;5006484;28;25065;-72
2024/01/04 09:18:53;;;;;;;10.48;2.80;;;;;;;;;;5031867;28;25105;-71
2024/01/04 09:21:19;;;;;;;3.63;2.25;;;;;;;;;;5001931;28;25059;-73
2024/01/04 09:23:46;;;;;;;5.75;2.03;;;;;;;;;;5012828;28;25060;-73
2024/01/04 09:26:12;;;;;;;7.30;2.55;;;;;;;;;;5010127;28;25060;-73
2024/01/04 09:28:38;;;;;;;10.23;2.80;;;;;;;;;;5018366;28;25065;-75
2024/01/04 09:31:04;;;;;;;7.32;2.50;;;;;;;;;;5009156;28;25056;-72
2024/01/04 09:33:30;;;;;;;6.65;2.67;;;;;;;;;;4999544;28;25097;-71
2024/01/04 09:35:56;;;;;;;9.15;2.95;;;;;;;;;;5014327;28;25062;-71
2024/01/04 09:38:22;;;;;;;11.32;3.28;;;;;;;;;;5011575;28;25090;-71
2024/01/04 09:40:50;;;;;;;6.40;2.67;;;;;;;;;;4997437;28;25081;-71
2024/01/04 09:43:16;;;;;;;6.32;2.30;;;;;;;;;;5002868;28;25063;-73
2024/01/04 09:45:44;;;;;;;6.38;2.90;;;;;;;;;;5004306;28;25068;-72
2024/01/04 09:48:11;;;;;;;15.63;3.22;;;;;;;;;;5005220;28;25102;-72
2024/01/04 09:50:38;;;;;;;6.40;2.33;;;;;;;;;;5001956;28;25066;-72
2024/01/04 09:53:05;;;;;;;11.82;3.17;;;;;;;;;;5000622;28;25066;-72
2024/01/04 09:55:33;;;;;;;12.50;2.80;;;;;;;;;;4991880;28;25065;-72
2024/01/04 09:57:59;;;;;;;7.07;2.80;;;;;;;;;;4996428;28;25069;-73
2024/01/04 10:00:25;;;;;;;15.32;3.10;;;;;;;;;;5004719;28;25092;-72
2024/01/04 10:02:52;;;;;;;9.85;2.47;;;;;;;;;;4985684;28;25205;-72
2024/01/04 10:05:18;;;;;;;11.20;2.72;;;;;;;;;;4990691;28;25072;-71
2024/01/04 10:08:12;;;;;;;8.75;2.65;;;;;;;;;;4986999;28;25115;-72
2024/01/04 10:10:40;;;;;;;12.32;3.03;;;;;;;;;;4981174;28;25048;-71
2024/01/04 10:13:08;;;;;;;8.60;2.72;;;;;;;;;;4995525;28;25070;-73
2024/01/04 10:15:36;;;;;;;14.18;3.75;;;;;;;;;;4991535;28;25066;-71
2024/01/04 10:18:02;;;;;;;14.13;3.22;;;;;;;;;;4994071;28;25143;-71
2024/01/04 10:20:29;;;;;;;10.95;4.18;;;;;;;;;;4991652;28;25061;-71
2024/01/04 10:22:57;;;;;;;15.43;3.80;;;;;;;;;;4983651;28;25105;-71
2024/01/04 10:25:23;;;;;;;19.75;3.65;;;;;;;;;;4997808;28;25146;-71
2024/01/04 10:27:59;;;;;;;11.77;3.45;;;;;;;;;;4991927;28;25141;-71
2024/01/04 10:30:26;;;;;;;21.15;4.07;;;;;;;;;;4990274;28;25089;-72
2024/01/04 10:32:52;;;;;;;17.23;3.75;;;;;;;;;;4990564;28;25139;-71
2024/01/04 10:35:26;;;;;;;16.30;3.58;;;;;;;;;;4988188;28;25055;-71
2024/01/04 10:37:56;;;;;;;14.65;3.90;;;;;;;;;;4997961;28;25046;-72
2024/01/04 10:40:22;;;;;;;12.52;3.67;;;;;;;;;;4983745;28;25066;-72
2024/01/04 10:42:54;;;;;;;13.75;3.78;;;;;;;;;;5025655;28;25065;-71
2024/01/04 10:45:30;;;;;;;26.40;4.20;;;;;;;;;;4995303;28;25080;-71
2024/01/04 10:47:56;;;;;;;21.25;3.90;;;;;;;;;;5019648;28;25140;-72
2024/01/04 10:50:26;;;;;;;12.10;3.15;;;;;;;;;;4985120;28;25086;-71
2024/01/04 10:52:54;;;;;;;14.52;3.20;;;;;;;;;;4988145;28;25080;-72
2024/01/04 10:55:20;;;;;;;19.98;3.63;;;;;;;;;;4977711;28;25126;-72
2024/01/04 10:57:47;;;;;;;14.88;2.90;;;;;;;;;;4995322;28;25065;-70
2024/01/04 11:00:14;;;;;;;13.48;3.60;;;;;;;;;;4989341;28;25105;-72
2024/01/04 11:02:40;;;;;;;10.32;3.30;;;;;;;;;;4989753;28;25044;-71
2024/01/04 11:05:09;;;;;;;13.15;3.25;;;;;;;;;;4989101;28;25062;-71
2024/01/04 11:07:36;;;;;;;16.95;4.10;;;;;;;;;;4990776;28;25063;-71
2024/01/04 11:10:02;;;;;;;21.92;3.88;;;;;;;;;;4987734;28;25079;-71
2024/01/04 11:12:29;;;;;;;16.08;3.65;;;;;;;;;;4991179;28;25127;-73
2024/01/04 11:14:55;;;;;;;11.63;2.75;;;;;;;;;;4985840;28;25136;-71
2024/01/04 11:17:35;;;;;;;14.38;3.20;;;;;;;;;;4987019;28;25095;-72
2024/01/04 11:20:14;;;;;;;12.43;2.80;;;;;;;;;;4994695;28;25118;-70
2024/01/04 11:22:52;;;;;;;10.35;4.05;;;;;;;;;;4983330;28;25054;-72
2024/01/04 11:25:33;;;;;;;10.48;3.67;;;;;;;;;;5009500;28;25070;-71
2024/01/04 11:27:59;;;;;;;12.77;3.28;;;;;;;;;;4989424;28;25062;-70
2024/01/04 11:30:25;;;;;;;7.90;3.05;;;;;;;;;;4986544;28;25077;-70
2024/01/04 11:32:51;;;;;;;13.77;3.33;;;;;;;;;;4979301;28;25077;-71
2024/01/04 11:35:21;;;;;;;10.88;3.17;;;;;;;;;;4991901;28;25072;-70
2024/01/04 11:37:53;;;;;;;13.82;4.18;;;;;;;;;;4982473;28;25051;-72
2024/01/04 11:40:19;;;;;;;;;;;;;;;;;;4990757;28;25093;-71
2024/01/04 11:42:45;;;;;;;16.25;3.35;;;;;;;;;;4988151;28;25178;-70
2024/01/04 11:45:15;;;;;;;6.78;2.75;;;;;;;;;;4988729;28;25065;-70
2024/01/04 11:47:41;;;;;;;10.65;3.45;;;;;;;;;;4992666;28;25067;-70
2024/01/04 11:50:18;;;;;;;5.00;2.83;;;;;;;;;;4981570;28;25102;-73
2024/01/04 11:52:45;;;;;;;3.72;2.63;;;;;;;;;;4980796;28;25068;-73
2024/01/04 11:55:12;;;;;;;7.28;2.65;;;;;;;;;;4989490;28;25058;-71
2024/01/04 11:57:39;;;;;;;8.38;3.17;;;;;;;;;;4984893;28;25050;-72
2024/01/04 12:00:15;;;;;;;7.57;3.75;;;;;;;;;;4988687;28;25130;-71
2024/01/04 12:02:41;;;;;;;6.68;3.15;;;;;;;;;;4991018;28;25060;-72
2024/01/04 12:05:07;;;;;;;10.77;2.78;;;;;;;;;;4975993;28;25157;-72
2024/01/04 12:07:35;;;;;;;9.05;3.13;;;;;;;;;;4990431;28;25126;-72
2024/01/04 12:10:01;;;;;;;9.10;3.45;;;;;;;;;;4989023;28;25078;-70
2024/01/04 12:12:27;;;;;;;8.27;3.15;;;;;;;;;;4992255;28;25045;-74
2024/01/04 12:14:53;;;;;;;7.18;2.05;;;;;;;;;;4982953;28;25049;-74
2024/01/04 12:17:19;;;;;;;17.85;2.92;;;;;;;;;;5006286;28;25116;-74
2024/01/04 12:19:47;;;;;;;3.00;2.20;;;;;;;;;;4983595;28;25054;-74
2024/01/04 12:22:14;;;;;;;6.63;1.67;;;;;;;;;;4990468;28;25065;-78
2024/01/04 12:24:42;;;;;;;7.32;2.00;;;;;;;;;;4993030;28;25104;-80
2024/01/04 12:27:08;;;;;;;4.00;1.52;;;;;;;;;;5028170;28;24930;-78
2024/01/04 12:29:34;;;;;;;9.75;1.90;;;;;;;;;;4989427;28;25045;-75
2024/01/04 12:32:00;;;;;;;4.38;1.65;;;;;;;;;;4992306;28;25067;-74
2024/01/04 12:34:26;;;;;;;6.05;2.25;;;;;;;;;;4987996;28;25050;-74
2024/01/04 12:37:02;;;;;;;14.60;2.80;;;;;;;;;;5012276;28;25060;-73
2024/01/04 12:39:31;;;;;;;5.80;2.30;;;;;;;;;;4985551;28;25060;-74
2024/01/04 12:41:57;;;;;;;10.23;2.80;;;;;;;;;;4983693;28;25062;-74
2024/01/04 12:44:24;;;;;;;16.92;3.22;;;;;;;;;;4983682;28;25157;-74
2024/01/04 12:46:50;;;;;;;16.05;3.05;;;;;;;;;;4991509;28;25074;-74
2024/01/04 12:49:16;;;;;;;12.55;3.30;;;;;;;;;;4991421;28;25051;-73
2024/01/04 12:51:43;;;;;;;14.80;3.55;;;;;;;;;;4983303;28;25102;-73
2024/01/04 12:54:10;;;;;;;21.42;4.22;;;;;;;;;;4986210;28;25151;-73
2024/01/04 12:56:36;;;;;;;15.63;3.83;;;;;;;;;;4983899;28;25066;-72
2024/01/04 12:59:04;;;;;;;21.63;5.15;;;;;;;;;;4986378;28;25069;-73
2024/01/04 13:01:30;;;;;;;19.02;5.30;;;;;;;;;;4981805;28;25061;-73
2024/01/04 13:03:57;;;;;;;23.10;5.47;;;;;;;;;;4985392;28;25128;-74
2024/01/04 13:06:23;;;;;;;25.50;6.85;;;;;;;;;;4984639;28;25064;-73
2024/01/04 13:08:52;;;;;;;28.70;5.65;;;;;;;;;;4990507;28;25146;-73
2024/01/04 13:11:18;;;;;;;31.77;5.85;;;;;;;;;;4993928;28;25152;-73
2024/01/04 13:13:44;;;;;;;30.42;5.57;;;;;;;;;;4995715;28;25066;-73
2024/01/04 13:16:10;;;;;;;24.27;6.15;;;;;;;;;;4987002;28;25144;-72
2024/01/04 13:18:37;;;;;;;33.63;6.85;;;;;;;;;;4993045;28;25072;-73
2024/01/04 13:21:03;;;;;;;29.15;7.65;;;;;;;;;;4987952;28;25143;-72
2024/01/04 13:23:29;;;;;;;22.85;5.57;;;;;;;;;;4988346;28;25080;-73
2024/01/04 13:25:56;;;;;;;31.02;5.47;;;;;;;;;;4987134;28;25062;-72
2024/01/04 13:28:22;;;;;;;26.30;5.93;;;;;;;;;;4994465;28;25075;-73
2024/01/04 13:30:48;;;;;;;28.85;6.40;;;;;;;;;;4990883;28;25076;-72
2024/01/04 13:33:14;;;;;;;36.17;5.80;;;;;;;;;;4997328;28;25070;-74
2024/01/04 13:35:40;;;;;;;27.88;5.53;;;;;;;;;;5005463;28;25061;-74
2024/01/04 13:38:07;;;;;;;25.52;5.50;;;;;;;;;;4992884;28;25086;-73
2024/01/04 13:40:33;;;;;;;37.20;6.32;;;;;;;;;;4990946;28;25064;-71
2024/01/04 13:42:59;;;;;;;25.58;6.00;;;;;;;;;;4987662;28;25118;-71
2024/01/04 13:45:25;;;;;;;21.48;5.82;;;;;;;;;;4989144;28;25169;-73
2024/01/04 13:47:52;;;;;;;22.48;5.38;;;;;;;;;;4980989;28;25084;-73
2024/01/04 13:50:20;;;;;;;30.52;5.55;;;;;;;;;;4991136;28;25082;-73
2024/01/04 13:52:46;;;;;;;24.85;5.53;;;;;;;;;;4991706;28;25075;-72
2024/01/04 13:55:12;;;;;;;30.55;6.68;;;;;;;;;;4989794;28;25085;-72
2024/01/04 13:57:38;;;;;;;27.13;5.80;;;;;;;;;;4985379;28;25061;-73
2024/01/04 14:00:04;;;;;;;19.67;5.78;;;;;;;;;;4989497;28;25153;-73
2024/01/04 14:02:30;;;;;;;26.15;6.40;;;;;;;;;;4984481;28;25069;-74
2024/01/04 14:04:56;;;;;;;23.00;5.93;;;;;;;;;;4983686;28;25104;-72
2024/01/04 14:07:22;;;;;;;29.45;6.18;;;;;;;;;;4989570;28;25096;-72
2024/01/04 14:09:48;;;;;;;32.17;6.20;;;;;;;;;;4989565;28;25068;-74
2024/01/04 14:12:14;;;;;;;21.25;5.70;;;;;;;;;;4989096;28;25047;-73
2024/01/04 14:14:40;;;;;;;23.52;6.63;;;;;;;;;;4990576;28;25080;-71
2024/01/04 14:17:06;;;;;;;24.35;6.05;;;;;;;;;;4989712;28;25065;-73
2024/01/04 14:19:32;;;;;;;26.40;6.43;;;;;;;;;;4987457;28;25061;-73
2024/01/04 14:21:58;;;;;;;22.85;6.53;;;;;;;;;;4985792;28;25078;-72
2024/01/04 14:24:24;;;;;;;25.90;6.78;;;;;;;;;;5006115;28;25085;-73
2024/01/04 14:26:50;;;;;;;28.52;6.63;;;;;;;;;;4991734;28;25105;-72
2024/01/04 14:29:16;;;;;;;27.73;6.45;;;;;;;;;;4991252;28;25066;-73
2024/01/04 14:31:42;;;;;;;29.20;6.00;;;;;;;;;;4986481;28;25060;-74